Time;durP1;ratioP1;P1;durP2;ratioP2;P2;SDS_P1;SDS_P2;PMS_P1;PMS_P2;Temp;Humidity;BMP_temperature;BMP_pressure;BME280_temperature;BME280_humidity;BME280_pressure;Samples;Min_cycle;Max_cycle;Signal;HPM_P1;HPM_P2
2022/11/28 20:46:14;;;;;;;13.45;9.20;;;;;;;7.79;85.84;99579.91;1090685;46;20019;-82
2022/11/28 20:47:19;;;;;;;17.85;12.80;;;;;;;7.71;86.48;99578.94;1088507;54;20022;-82
2022/11/28 20:48:21;;;;;;;17.45;13.75;;;;;;;7.64;87.01;99573.31;1093490;39;20563;-83
2022/11/28 20:49:25;;;;;;;20.67;15.27;;;;;;;7.60;87.29;99577.25;1089673;46;20066;-82
2022/11/28 20:50:35;;;;;;;19.35;15.25;;;;;;;7.60;87.82;99575.41;1088428;54;20027;-82
2022/11/28 20:51:39;;;;;;;22.95;16.23;;;;;;;7.57;87.89;99573.00;1091533;46;20018;-81
2022/11/28 20:52:41;;;;;;;25.30;18.83;;;;;;;7.53;88.22;99574.28;1088379;54;20030;-82
2022/11/28 20:53:46;;;;;;;24.15;16.80;;;;;;;7.61;88.13;99584.22;1088812;46;20027;-81
2022/11/28 20:54:50;;;;;;;22.95;17.52;;;;;;;7.56;88.43;99581.97;1088348;54;20018;-81
2022/11/28 20:55:58;;;;;;;24.08;17.67;;;;;;;7.52;89.47;99577.91;1088372;54;20042;-81
2022/11/28 20:57:02;;;;;;;23.52;17.67;;;;;;;7.53;89.03;99584.91;1088287;54;20046;-82
2022/11/28 20:58:17;;;;;;;22.33;16.65;;;;;;;7.53;89.66;99578.75;1090277;39;20428;-84
2022/11/28 20:59:21;;;;;;;24.80;18.05;;;;;;;7.48;89.59;99582.66;1088200;54;20034;-84
2022/11/28 21:00:23;;;;;;;26.23;18.55;;;;;;;7.48;89.81;99587.97;1088210;54;20030;-83
2022/11/28 21:01:32;;;;;;;24.60;18.00;;;;;;;7.43;90.21;99584.06;1088544;46;20031;-83
2022/11/28 21:02:36;;;;;;;26.65;18.63;;;;;;;7.42;90.26;99585.03;1088324;54;20568;-83
2022/11/28 21:03:40;;;;;;;24.08;18.08;;;;;;;7.37;91.09;99587.25;1088299;54;20036;-83
2022/11/28 21:04:47;;;;;;;21.77;17.35;;;;;;;7.38;90.78;99588.91;1088189;54;20046;-84
2022/11/28 21:05:49;;;;;;;25.02;17.30;;;;;;;7.37;90.81;99584.59;1088273;54;20025;-83
2022/11/28 21:06:54;;;;;;;23.13;17.60;;;;;;;7.39;90.67;99588.81;1088324;54;20058;-83
2022/11/28 21:07:57;;;;;;;24.70;19.08;;;;;;;7.31;90.97;99585.97;1088321;54;20035;-84
2022/11/28 21:10:22;;;;;;;24.50;18.60;;;;;;;7.37;90.72;99579.28;1087899;54;20017;-82
2022/11/28 21:13:42;;;;;;;23.48;17.98;;;;;;;7.32;90.94;99579.69;1088028;54;20030;-82
2022/11/28 21:14:48;;;;;;;22.73;17.30;;;;;;;7.27;91.02;99588.06;1087915;54;20105;-84
2022/11/28 21:15:55;;;;;;;20.70;16.73;;;;;;;7.29;90.98;99587.94;1093408;46;20092;-84
2022/11/28 21:17:03;;;;;;;24.10;18.75;;;;;;;7.30;90.88;99582.47;1088097;54;20022;-83
2022/11/28 21:18:15;;;;;;;21.58;17.42;;;;;;;7.34;90.76;99583.88;1089526;39;20832;-83
2022/11/28 21:19:20;;;;;;;23.10;17.35;;;;;;;7.41;90.16;99592.19;1088446;39;20641;-81
2022/11/28 21:20:24;;;;;;;24.67;19.38;;;;;;;7.37;90.46;99587.25;1088049;54;20027;-81
2022/11/28 21:21:29;;;;;;;25.33;18.98;;;;;;;7.37;90.53;99587.25;1087934;54;20033;-83
2022/11/28 21:22:34;;;;;;;25.27;18.90;;;;;;;7.39;90.29;99583.47;1088088;54;20042;-81
2022/11/28 21:23:42;;;;;;;21.00;16.90;;;;;;;7.46;90.19;99589.94;1087954;54;20026;-83
2022/11/28 21:24:48;;;;;;;20.88;17.25;;;;;;;7.45;89.83;99585.59;1089308;46;20031;-81
2022/11/28 21:25:52;;;;;;;20.48;15.25;;;;;;;7.58;89.36;99585.34;1088656;46;20038;-81
2022/11/28 21:27:04;;;;;;;20.73;15.82;;;;;;;7.69;89.14;99586.19;1087921;54;20052;-81
2022/11/28 21:28:09;;;;;;;18.35;15.13;;;;;;;7.73;88.56;99585.78;1088035;54;20022;-82
2022/11/28 21:29:14;;;;;;;21.23;16.17;;;;;;;7.67;88.75;99588.16;1088136;54;20749;-81
2022/11/28 21:30:18;;;;;;;19.70;15.73;;;;;;;7.55;89.25;99584.78;1088065;54;20049;-84
2022/11/28 21:31:38;;;;;;;24.15;16.15;;;;;;;7.52;89.42;99596.53;1088101;54;20027;-82
2022/11/28 21:32:46;;;;;;;22.15;16.27;;;;;;;7.52;90.03;99585.91;1088157;54;20046;-84
2022/11/28 21:33:50;;;;;;;23.20;16.77;;;;;;;7.50;89.96;99582.53;1088189;54;20057;-82
2022/11/28 21:34:55;;;;;;;22.30;17.13;;;;;;;7.52;89.82;99585.03;1088164;54;20015;-81
2022/11/28 21:35:58;;;;;;;22.02;17.75;;;;;;;7.57;89.56;99593.47;1088090;54;20064;-82
2022/11/28 21:37:04;;;;;;;21.58;17.27;;;;;;;7.58;89.44;99582.69;1088198;54;20035;-83
2022/11/28 21:38:06;;;;;;;21.15;15.75;;;;;;;7.62;89.15;99578.78;1088196;54;20094;-82
2022/11/28 21:39:14;;;;;;;19.58;15.82;;;;;;;7.75;88.78;99596.28;1091333;46;20690;-83
2022/11/28 21:40:16;;;;;;;19.38;15.00;;;;;;;7.69;88.75;99584.41;1088349;54;20015;-83
2022/11/28 21:41:22;;;;;;;19.63;16.15;;;;;;;7.67;88.84;99586.34;1088092;54;20819;-83
2022/11/28 21:42:27;;;;;;;20.35;16.25;;;;;;;7.68;89.23;99585.38;1088244;54;20019;-82
2022/11/28 21:43:29;;;;;;;21.98;17.92;;;;;;;7.56;89.50;99587.28;1088347;54;20027;-82
2022/11/28 21:44:36;;;;;;;23.33;16.73;;;;;;;7.56;89.74;99589.94;1089317;46;20042;-83
2022/11/28 21:46:43;;;;;;;25.02;17.83;;;;;;;7.52;90.17;99587.69;1087157;54;20031;-80
2022/11/28 21:47:47;;;;;;;21.23;16.65;;;;;;;7.51;89.95;99584.22;1086913;54;21119;-80
2022/11/28 21:48:52;;;;;;;21.90;16.65;;;;;;;7.46;89.85;99592.59;1087374;39;21863;-80
2022/11/28 21:49:56;;;;;;;19.77;15.88;;;;;;;7.47;90.05;99585.44;1086901;54;20046;-82
2022/11/28 21:50:58;;;;;;;18.58;15.32;;;;;;;7.51;89.60;99584.22;1087113;54;20647;-79
2022/11/28 21:52:04;;;;;;;20.77;15.38;;;;;;;7.47;89.75;99582.78;1087317;54;20042;-80
2022/11/28 21:53:06;;;;;;;19.67;15.85;;;;;;;7.45;89.96;99588.25;1086939;54;20039;-79
2022/11/28 21:54:11;;;;;;;21.85;16.38;;;;;;;7.43;90.21;99581.38;1087053;54;20604;-80
2022/11/28 21:55:15;;;;;;;20.13;16.13;;;;;;;7.41;89.92;99588.66;1087033;54;20030;-79
